createdAt,value
2018-10-21T00:01:43.271Z,30.70
2018-10-21T00:04:12.294Z,32.40
2018-10-21T00:06:41.594Z,35.00
2018-10-21T00:09:12.253Z,30.07
2018-10-21T00:11:41.474Z,31.67
2018-10-21T00:14:10.764Z,32.67
2018-10-21T00:16:40.014Z,32.03
2018-10-21T00:19:09.324Z,29.50
2018-10-21T00:21:38.681Z,29.63
2018-10-21T00:24:07.939Z,30.37
2018-10-21T00:26:37.294Z,27.53
2018-10-21T00:29:06.877Z,30.10
2018-10-21T00:31:36.035Z,34.17
2018-10-21T00:34:05.455Z,35.87
2018-10-21T00:36:34.644Z,32.80
2018-10-21T00:39:04.098Z,32.37
2018-10-21T00:41:33.234Z,32.23
2018-10-21T00:44:02.263Z,34.80
2018-10-21T00:46:31.434Z,29.00
2018-10-21T00:49:00.695Z,33.87
2018-10-21T00:51:29.763Z,28.43
2018-10-21T00:53:59.213Z,29.63
2018-10-21T00:56:28.403Z,33.03
2018-10-21T00:58:57.758Z,29.47
2018-10-21T01:01:26.992Z,31.27
2018-10-21T01:03:56.065Z,32.57
2018-10-21T01:06:25.252Z,31.10
2018-10-21T01:08:55.368Z,30.47
2018-10-21T01:11:24.359Z,32.13
2018-10-21T01:13:53.419Z,32.97
2018-10-21T01:16:22.653Z,29.70
2018-10-21T01:18:51.829Z,33.23
2018-10-21T01:21:20.916Z,30.40
2018-10-21T01:23:50.311Z,32.43
2018-10-21T01:26:19.628Z,31.90
2018-10-21T01:28:48.953Z,36.10
2018-10-21T01:31:17.973Z,33.07
2018-10-21T01:33:47.188Z,28.77
2018-10-21T01:36:16.431Z,30.30
2018-10-21T01:38:45.434Z,29.67
2018-10-21T01:41:14.547Z,31.53
2018-10-21T01:43:43.631Z,35.17
2018-10-21T01:46:12.707Z,30.80
2018-10-21T01:48:41.841Z,33.20
2018-10-21T01:51:11.075Z,33.27
2018-10-21T01:53:40.213Z,31.50
2018-10-21T01:56:09.338Z,28.83
2018-10-21T01:58:38.774Z,31.77
2018-10-21T02:01:07.944Z,38.03
2018-10-21T02:03:36.998Z,37.77
2018-10-21T02:06:06.398Z,34.83
2018-10-21T02:08:35.634Z,33.80
2018-10-21T02:11:04.781Z,37.60
2018-10-21T02:13:34.067Z,37.30
2018-10-21T02:16:03.190Z,38.30
2018-10-21T02:18:32.360Z,34.53
2018-10-21T02:21:07.731Z,37.27
2018-10-21T02:23:36.834Z,35.33
2018-10-21T02:26:05.950Z,34.23
2018-10-21T02:28:35.084Z,35.47
2018-10-21T02:31:04.164Z,42.03
2018-10-21T02:33:33.546Z,36.20
2018-10-21T02:36:02.728Z,36.90
2018-10-21T02:38:31.903Z,34.07
2018-10-21T02:41:22.133Z,34.03
2018-10-21T02:43:51.193Z,34.00
2018-10-21T02:46:21.264Z,35.57
2018-10-21T02:48:51.242Z,37.67
2018-10-21T02:51:20.324Z,38.73
2018-10-21T02:53:49.411Z,35.60
2018-10-21T02:56:18.474Z,35.03
2018-10-21T02:58:47.683Z,35.23
2018-10-21T03:01:17.012Z,37.50
2018-10-21T03:03:46.267Z,33.23
2018-10-21T03:06:15.846Z,29.80
2018-10-21T03:08:44.853Z,38.30
2018-10-21T03:11:13.933Z,31.67
2018-10-21T03:13:43.051Z,37.83
2018-10-21T03:16:12.395Z,31.90
2018-10-21T03:18:41.453Z,36.23
2018-10-21T03:21:10.888Z,29.70
2018-10-21T03:23:39.833Z,38.10
2018-10-21T03:26:09.165Z,34.23
2018-10-21T03:28:38.222Z,37.27
2018-10-21T03:31:07.352Z,34.03
2018-10-21T03:33:37.428Z,38.47
2018-10-21T03:36:06.497Z,36.87
2018-10-21T03:38:35.592Z,40.87
2018-10-21T03:41:04.713Z,36.53
2018-10-21T03:43:33.779Z,34.10
2018-10-21T03:46:02.920Z,37.63
2018-10-21T03:48:31.957Z,36.23
2018-10-21T03:51:01.521Z,38.50
2018-10-21T03:53:30.473Z,32.67
2018-10-21T03:55:59.739Z,36.30
2018-10-21T03:58:29.032Z,33.50
2018-10-21T04:00:58.278Z,32.90
2018-10-21T04:03:33.858Z,31.37
2018-10-21T04:06:03.654Z,37.00
2018-10-21T04:08:32.975Z,35.80
2018-10-21T04:11:02.217Z,39.23
2018-10-21T04:13:31.270Z,36.77
2018-10-21T04:16:00.766Z,38.70
2018-10-21T04:18:29.899Z,36.33
2018-10-21T04:20:59.079Z,35.00
2018-10-21T04:23:28.184Z,36.23
2018-10-21T04:25:57.276Z,38.67
2018-10-21T04:28:26.293Z,43.47
2018-10-21T04:30:55.313Z,45.03
2018-10-21T04:33:55.018Z,43.63
2018-10-21T04:36:25.882Z,42.33
2018-10-21T04:40:22.405Z,42.00
2018-10-21T04:42:51.897Z,41.97
2018-10-21T04:45:22.793Z,41.23
2018-10-21T04:47:51.818Z,40.40
2018-10-21T04:50:20.884Z,38.97
2018-10-21T04:52:49.987Z,36.53
2018-10-21T04:55:18.976Z,34.10
2018-10-21T04:57:48.275Z,38.37
2018-10-21T05:00:24.475Z,36.03
2018-10-21T05:02:53.547Z,39.93
2018-10-21T05:05:22.606Z,32.43
2018-10-21T05:07:51.735Z,40.67
2018-10-21T05:10:26.189Z,36.27
2018-10-21T05:12:55.238Z,41.87
2018-10-21T05:15:25.417Z,40.60
2018-10-21T05:17:54.799Z,41.17
2018-10-21T05:20:24.071Z,37.83
2018-10-21T05:22:53.142Z,37.67
2018-10-21T05:25:22.444Z,40.00
2018-10-21T05:27:51.466Z,42.97
2018-10-21T05:30:20.491Z,39.47
2018-10-21T05:32:49.712Z,38.53
2018-10-21T05:35:19.556Z,38.10
2018-10-21T05:37:48.650Z,37.87
2018-10-21T05:40:19.002Z,37.67
2018-10-21T05:42:48.540Z,33.17
2018-10-21T05:45:17.860Z,38.70
2018-10-21T05:47:47.070Z,35.60
2018-10-21T05:50:17.013Z,34.83
2018-10-21T05:52:46.104Z,30.67
2018-10-21T05:55:15.883Z,35.23
2018-10-21T05:57:45.110Z,31.67
2018-10-21T06:00:17.150Z,33.77
2018-10-21T06:02:46.385Z,37.07
2018-10-21T06:05:44.727Z,37.00
2018-10-21T06:08:13.875Z,38.53
2018-10-21T06:10:43.686Z,33.43
2018-10-21T06:13:13.129Z,35.00
2018-10-21T06:15:42.279Z,37.20
2018-10-21T06:18:22.056Z,33.40
2018-10-21T06:20:54.491Z,35.27
2018-10-21T06:23:23.534Z,31.87
2018-10-21T06:25:53.407Z,30.70
2018-10-21T06:28:23.351Z,33.17
2018-10-21T06:30:52.488Z,34.87
2018-10-21T06:33:21.773Z,36.37
2018-10-21T06:35:50.906Z,30.57
2018-10-21T06:38:19.901Z,32.60
2018-10-21T06:40:48.959Z,31.07
2018-10-21T06:43:18.264Z,32.27
2018-10-21T06:45:47.803Z,34.40
2018-10-21T06:48:16.774Z,35.47
2018-10-21T06:50:45.845Z,37.97
2018-10-21T06:53:14.889Z,34.63
2018-10-21T06:55:44.095Z,38.07
2018-10-21T06:58:13.123Z,35.67
2018-10-21T07:00:42.153Z,37.47
2018-10-21T07:03:11.344Z,34.67
2018-10-21T07:06:42.875Z,37.67
2018-10-21T07:09:12.027Z,38.23
2018-10-21T07:11:41.334Z,39.87
2018-10-21T07:14:10.349Z,43.70
2018-10-21T07:16:39.725Z,41.43
2018-10-21T07:19:08.582Z,43.13
2018-10-21T07:21:37.821Z,40.27
2018-10-21T07:24:06.953Z,46.30
2018-10-21T07:26:35.946Z,42.40
2018-10-21T07:29:05.698Z,44.10
2018-10-21T07:31:34.743Z,44.23
2018-10-21T07:34:04.116Z,45.40
2018-10-21T07:36:33.102Z,45.27
2018-10-21T07:39:02.583Z,41.67
2018-10-21T07:41:31.622Z,40.53
2018-10-21T07:44:00.792Z,47.43
2018-10-21T07:46:36.340Z,38.73
2018-10-21T07:49:06.395Z,43.00
2018-10-21T07:51:35.412Z,43.73
2018-10-21T07:54:04.585Z,38.67
2018-10-21T07:56:33.802Z,43.77
2018-10-21T07:59:02.893Z,40.77
2018-10-21T08:01:32.101Z,39.70
2018-10-21T08:04:02.345Z,38.20
2018-10-21T08:06:42.244Z,38.67
2018-10-21T08:09:12.311Z,33.87
2018-10-21T08:11:41.369Z,37.00
2018-10-21T08:14:10.585Z,42.07
2018-10-21T08:16:39.601Z,34.93
2018-10-21T08:19:08.820Z,39.03
2018-10-21T08:21:38.137Z,38.87
2018-10-21T08:24:08.076Z,38.27
2018-10-21T08:26:37.168Z,42.00
2018-10-21T08:29:06.456Z,44.03
2018-10-21T08:31:35.508Z,37.30
2018-10-21T08:34:04.689Z,41.33
2018-10-21T08:36:33.898Z,43.03
2018-10-21T08:39:03.411Z,40.53
2018-10-21T08:41:32.450Z,38.93
2018-10-21T08:44:01.936Z,39.90
2018-10-21T08:46:31.022Z,34.33
2018-10-21T08:49:00.191Z,38.43
2018-10-21T08:51:29.298Z,34.77
2018-10-21T08:53:58.585Z,32.57
2018-10-21T08:56:27.689Z,32.63
2018-10-21T08:58:57.145Z,33.73
2018-10-21T09:01:26.181Z,32.57
2018-10-21T09:03:55.221Z,29.53
2018-10-21T09:06:24.452Z,30.30
2018-10-21T09:08:53.614Z,28.07
2018-10-21T09:11:22.669Z,30.10
2018-10-21T09:13:51.983Z,28.40
2018-10-21T09:16:21.178Z,28.40
2018-10-21T09:18:50.373Z,30.67
2018-10-21T09:21:19.711Z,31.30
2018-10-21T09:23:49.043Z,30.00
2018-10-21T09:26:18.167Z,27.70
2018-10-21T09:28:47.659Z,27.13
2018-10-21T09:31:16.792Z,27.27
2018-10-21T09:33:45.940Z,24.67
2018-10-21T09:36:15.234Z,27.73
2018-10-21T09:38:44.325Z,26.30
2018-10-21T09:41:13.548Z,28.13
2018-10-21T09:43:42.719Z,26.03
2018-10-21T09:46:11.998Z,26.50
2018-10-21T09:48:41.122Z,21.33
2018-10-21T09:51:10.412Z,22.53
2018-10-21T09:53:39.795Z,23.57
2018-10-21T09:56:08.831Z,21.63
2018-10-21T09:58:37.985Z,26.03
2018-10-21T10:01:12.650Z,20.33
2018-10-21T10:03:41.715Z,22.07
2018-10-21T10:06:10.837Z,24.00
2018-10-21T10:08:40.088Z,21.07
2018-10-21T10:11:09.388Z,19.37
2018-10-21T10:13:38.457Z,19.87
2018-10-21T10:16:07.899Z,20.00
2018-10-21T10:18:37.110Z,18.23
2018-10-21T10:21:06.896Z,17.47
2018-10-21T10:23:36.165Z,16.67
2018-10-21T10:26:05.264Z,18.07
2018-10-21T10:28:34.435Z,20.03
2018-10-21T10:31:03.856Z,19.93
2018-10-21T10:33:32.890Z,16.43
2018-10-21T10:36:02.896Z,16.47
2018-10-21T10:38:32.076Z,17.27
2018-10-21T10:41:01.430Z,12.90
2018-10-21T10:43:30.518Z,15.30
2018-10-21T10:45:59.925Z,16.07
2018-10-21T10:48:28.994Z,17.13
2018-10-21T10:50:58.211Z,13.07
2018-10-21T10:53:27.331Z,14.10
2018-10-21T10:55:56.514Z,13.67
2018-10-21T10:58:25.554Z,13.30
2018-10-21T11:00:54.753Z,11.50
2018-10-21T11:03:23.892Z,11.20
2018-10-21T11:05:53.157Z,16.30
2018-10-21T11:08:22.323Z,14.73
2018-10-21T11:10:51.507Z,11.17
2018-10-21T11:13:20.653Z,13.30
2018-10-21T11:15:49.774Z,13.17
2018-10-21T11:18:19.048Z,12.47
2018-10-21T11:20:48.310Z,11.40
2018-10-21T11:23:17.619Z,12.13
2018-10-21T11:25:46.905Z,14.03
2018-10-21T11:28:15.961Z,13.20
2018-10-21T11:30:45.036Z,13.30
2018-10-21T11:33:14.278Z,12.50
2018-10-21T11:35:43.477Z,11.63
2018-10-21T11:38:12.929Z,12.13
2018-10-21T11:40:42.078Z,11.33
2018-10-21T11:43:11.225Z,11.48
2018-10-21T11:45:40.433Z,10.13
2018-10-21T11:48:09.535Z,9.65
2018-10-21T11:50:38.762Z,9.33
2018-10-21T11:53:08.035Z,9.78
2018-10-21T11:55:39.979Z,8.98
2018-10-21T11:58:11.335Z,8.80
2018-10-21T12:00:40.863Z,8.45
2018-10-21T12:03:10.832Z,9.65
2018-10-21T12:05:40.753Z,7.67
2018-10-21T12:08:10.087Z,6.15
2018-10-21T12:10:39.320Z,5.65
2018-10-21T12:13:08.763Z,6.00
2018-10-21T12:15:37.959Z,6.97
2018-10-21T12:18:07.723Z,5.20
2018-10-21T12:20:37.220Z,5.22
2018-10-21T12:23:06.618Z,5.33
2018-10-21T12:25:35.743Z,6.22
2018-10-21T12:28:04.919Z,4.35
2018-10-21T12:30:34.085Z,6.15
2018-10-21T12:33:03.171Z,4.72
2018-10-21T12:35:32.243Z,4.72
2018-10-21T12:38:01.329Z,5.17
2018-10-21T12:40:30.454Z,6.80
2018-10-21T12:42:59.669Z,4.87
2018-10-21T12:45:28.928Z,4.05
2018-10-21T12:47:57.918Z,3.30
2018-10-21T12:50:27.070Z,4.15
2018-10-21T12:52:56.193Z,3.37
2018-10-21T12:55:25.526Z,5.28
2018-10-21T12:57:54.817Z,4.42
2018-10-21T13:00:24.077Z,4.78
2018-10-21T13:02:54.036Z,3.58
2018-10-21T13:05:23.277Z,5.67
2018-10-21T13:07:53.210Z,4.58
2018-10-21T13:10:22.255Z,3.70
2018-10-21T13:12:51.554Z,2.75
2018-10-21T13:15:20.874Z,3.42
2018-10-21T13:17:50.054Z,2.95
2018-10-21T13:20:19.511Z,4.20
2018-10-21T13:22:48.653Z,2.83
2018-10-21T13:25:17.812Z,2.85
2018-10-21T13:27:47.132Z,3.62
2018-10-21T13:30:16.401Z,7.53
2018-10-21T13:32:45.650Z,4.20
2018-10-21T13:35:14.715Z,3.83
2018-10-21T13:37:43.853Z,5.25
2018-10-21T13:40:13.120Z,3.98
2018-10-21T13:42:42.198Z,3.00
2018-10-21T13:45:11.413Z,3.02
2018-10-21T13:47:41.438Z,3.37
2018-10-21T13:50:10.529Z,3.60
2018-10-21T13:52:39.714Z,4.22
2018-10-21T13:55:09.439Z,3.35
2018-10-21T13:57:38.570Z,4.83
2018-10-21T14:00:08.832Z,4.65
2018-10-21T14:02:38.150Z,3.20
2018-10-21T14:05:07.960Z,4.73
2018-10-21T14:07:37.140Z,4.20
2018-10-21T14:10:07.022Z,3.93
2018-10-21T14:12:36.330Z,2.93
2018-10-21T14:15:06.635Z,3.43
2018-10-21T14:17:35.786Z,4.37
2018-10-21T14:20:05.958Z,4.40
2018-10-21T14:22:35.114Z,2.93
2018-10-21T14:25:04.468Z,4.27
2018-10-21T14:27:33.599Z,3.73
2018-10-21T14:30:02.922Z,4.10
2018-10-21T14:32:31.972Z,5.73
2018-10-21T14:35:01.271Z,4.37
2018-10-21T14:37:30.366Z,2.80
2018-10-21T14:40:07.195Z,5.00
2018-10-21T14:42:36.348Z,6.07
2018-10-21T14:45:07.372Z,2.17
2018-10-21T14:47:36.859Z,3.93
2018-10-21T14:50:07.020Z,4.70
2018-10-21T14:52:36.932Z,4.73
2018-10-21T14:55:06.899Z,3.73
2018-10-21T14:57:36.410Z,5.37
2018-10-21T15:00:07.968Z,4.80
2018-10-21T15:02:37.320Z,3.17
2018-10-21T15:05:09.572Z,3.93
2018-10-21T15:07:39.197Z,3.43
2018-10-21T15:10:09.699Z,4.20
2018-10-21T15:12:39.114Z,3.10
2018-10-21T15:15:09.288Z,3.37
2018-10-21T15:17:39.296Z,2.73
2018-10-21T15:20:10.647Z,5.67
2018-10-21T15:22:39.905Z,2.83
2018-10-21T15:25:11.416Z,3.63
2018-10-21T15:27:40.938Z,7.27
2018-10-21T15:30:11.029Z,3.70
2018-10-21T15:32:41.412Z,4.23
2018-10-21T15:35:10.704Z,6.87
2018-10-21T15:37:40.096Z,3.00
2018-10-21T15:40:10.520Z,4.73
2018-10-21T15:42:39.671Z,5.40
2018-10-21T15:45:11.131Z,5.33
2018-10-21T15:47:40.397Z,5.20
2018-10-21T15:50:09.975Z,7.23
2018-10-21T15:52:39.256Z,4.97
2018-10-21T15:55:09.417Z,3.40
2018-10-21T15:57:38.704Z,4.20
2018-10-21T16:00:10.225Z,5.27
2018-10-21T16:02:39.613Z,5.33
2018-10-21T16:05:09.724Z,6.17
2018-10-21T16:07:38.931Z,5.33
2018-10-21T16:10:09.079Z,6.27
2018-10-21T16:12:38.467Z,5.43
2018-10-21T16:15:11.739Z,6.50
2018-10-21T16:17:41.377Z,5.53
2018-10-21T16:20:10.626Z,4.33
2018-10-21T16:22:46.314Z,4.20
2018-10-21T16:25:16.149Z,4.67
2018-10-21T16:27:45.262Z,4.00
2018-10-21T16:30:16.530Z,4.77
2018-10-21T16:32:45.871Z,4.57
2018-10-21T16:35:15.236Z,3.77
2018-10-21T16:37:44.473Z,6.47
2018-10-21T16:40:15.276Z,4.93
2018-10-21T16:42:44.415Z,5.93
2018-10-21T16:45:14.745Z,5.93
2018-10-21T16:47:43.887Z,4.47
2018-10-21T16:50:15.105Z,7.53
2018-10-21T16:52:45.049Z,9.17
2018-10-21T16:55:15.144Z,7.03
2018-10-21T16:57:44.231Z,7.27
2018-10-21T17:00:15.241Z,6.90
2018-10-21T17:02:44.516Z,8.07
2018-10-21T17:05:13.906Z,8.13
2018-10-21T17:07:42.892Z,9.83
2018-10-21T17:10:13.106Z,6.07
2018-10-21T17:12:41.773Z,7.33
2018-10-21T17:15:11.794Z,10.13
2018-10-21T17:17:41.911Z,8.23
2018-10-21T17:20:13.920Z,6.23
2018-10-21T17:22:43.713Z,9.73
2018-10-21T17:25:14.157Z,9.07
2018-10-21T17:27:43.330Z,8.00
2018-10-21T17:30:16.391Z,5.40
2018-10-21T17:32:46.117Z,7.27
2018-10-21T17:35:15.314Z,5.37
2018-10-21T17:37:44.730Z,7.37
2018-10-21T17:40:14.514Z,9.73
2018-10-21T17:42:43.758Z,9.10
2018-10-21T17:45:14.620Z,12.10
2018-10-21T17:47:44.348Z,10.23
2018-10-21T17:50:14.804Z,7.17
2018-10-21T17:52:44.700Z,7.37
2018-10-21T17:55:14.667Z,8.03
2018-10-21T17:57:44.042Z,9.37
2018-10-21T18:00:14.445Z,7.10
2018-10-21T18:02:44.009Z,6.87
2018-10-21T18:05:14.480Z,8.20
2018-10-21T18:07:44.081Z,9.23
2018-10-21T18:10:13.896Z,8.53
2018-10-21T18:12:43.354Z,7.30
2018-10-21T18:15:13.229Z,11.10
2018-10-21T18:17:43.216Z,8.90
2018-10-21T18:20:13.591Z,14.43
2018-10-21T18:22:43.267Z,8.33
2018-10-21T18:25:13.162Z,7.07
2018-10-21T18:27:42.959Z,9.37
2018-10-21T18:30:13.728Z,9.33
2018-10-21T18:32:43.411Z,8.97
2018-10-21T18:35:14.677Z,8.53
2018-10-21T18:37:44.258Z,9.23
2018-10-21T18:40:13.989Z,9.27
2018-10-21T18:42:43.714Z,11.00
2018-10-21T18:45:14.698Z,8.87
2018-10-21T18:47:44.751Z,8.57
2018-10-21T18:50:15.953Z,11.33
2018-10-21T18:52:45.592Z,7.67
2018-10-21T18:55:15.371Z,8.60
2018-10-21T18:57:44.912Z,9.47
2018-10-21T19:00:16.991Z,7.67
2018-10-21T19:02:46.610Z,9.83
2018-10-21T19:05:22.572Z,12.60
2018-10-21T19:07:52.082Z,10.23
2018-10-21T19:10:21.707Z,9.90
2018-10-21T19:13:00.051Z,8.13
2018-10-21T19:15:21.002Z,10.13
2018-10-21T19:17:50.599Z,10.57
2018-10-21T19:20:21.255Z,8.97
2018-10-21T19:22:50.787Z,9.60
2018-10-21T19:25:20.459Z,8.37
2018-10-21T19:27:49.638Z,10.47
2018-10-21T19:30:19.138Z,9.30
2018-10-21T19:32:48.444Z,8.30
2018-10-21T19:35:17.858Z,10.33
2018-10-21T19:37:47.213Z,10.27
2018-10-21T19:40:17.267Z,11.20
2018-10-21T19:42:46.784Z,8.50
2018-10-21T19:45:16.639Z,11.20
2018-10-21T19:47:45.930Z,10.67
2018-10-21T19:50:16.504Z,12.77
2018-10-21T19:52:46.214Z,8.50
2018-10-21T19:55:15.830Z,11.17
2018-10-21T19:57:45.125Z,8.53
2018-10-21T20:00:15.801Z,10.30
2018-10-21T20:02:45.683Z,11.13
2018-10-21T20:05:15.401Z,10.37
2018-10-21T20:07:44.746Z,9.57
2018-10-21T20:10:15.079Z,12.43
2018-10-21T20:12:44.093Z,11.37
2018-10-21T20:15:13.820Z,10.10
2018-10-21T20:17:42.951Z,11.03
2018-10-21T20:20:12.733Z,13.00
2018-10-21T20:22:41.856Z,10.43
2018-10-21T20:25:12.341Z,14.07
2018-10-21T20:27:41.349Z,11.20
2018-10-21T20:30:12.180Z,10.63
2018-10-21T20:32:41.632Z,9.53
2018-10-21T20:35:11.950Z,11.30
2018-10-21T20:37:41.040Z,16.40
2018-10-21T20:40:10.861Z,11.17
2018-10-21T20:42:39.869Z,11.43
2018-10-21T20:45:10.868Z,15.00
2018-10-21T20:47:40.132Z,9.77
2018-10-21T20:50:09.253Z,11.03
2018-10-21T20:52:38.331Z,13.17
2018-10-21T20:55:07.890Z,14.33
2018-10-21T20:57:37.790Z,13.90
2018-10-21T21:00:06.964Z,17.53
2018-10-21T21:02:36.070Z,12.97
2018-10-21T21:05:06.170Z,13.60
2018-10-21T21:07:35.344Z,14.93
2018-10-21T21:10:05.320Z,12.03
2018-10-21T21:12:34.486Z,12.13
2018-10-21T21:15:03.633Z,12.17
2018-10-21T21:17:32.884Z,11.47
2018-10-21T21:20:02.255Z,11.37
2018-10-21T21:22:31.466Z,13.83
2018-10-21T21:25:00.569Z,13.03
2018-10-21T21:27:29.834Z,11.60
2018-10-21T21:29:58.895Z,13.73
2018-10-21T21:32:27.994Z,12.00
2018-10-21T21:34:57.036Z,17.20
2018-10-21T21:37:26.089Z,13.67
2018-10-21T21:39:55.351Z,12.80
2018-10-21T21:42:24.358Z,9.60
2018-10-21T21:44:53.361Z,9.50
2018-10-21T21:47:22.414Z,10.93
2018-10-21T21:49:51.394Z,9.77
2018-10-21T21:52:20.640Z,11.80
2018-10-21T21:54:49.632Z,11.47
2018-10-21T21:57:19.118Z,9.20
2018-10-21T21:59:48.236Z,10.40
2018-10-21T22:02:17.407Z,11.00
2018-10-21T22:04:46.437Z,8.03
2018-10-21T22:07:15.596Z,10.57
2018-10-21T22:09:44.934Z,8.00
2018-10-21T22:12:14.903Z,9.50
2018-10-21T22:14:44.825Z,9.70
2018-10-21T22:17:13.996Z,8.70
2018-10-21T22:19:43.087Z,9.07
2018-10-21T22:22:12.610Z,15.03
2018-10-21T22:24:41.604Z,9.90
2018-10-21T22:27:10.658Z,8.77
2018-10-21T22:29:39.919Z,9.13
2018-10-21T22:32:09.015Z,13.13
2018-10-21T22:34:38.396Z,9.37
2018-10-21T22:37:07.589Z,13.53
2018-10-21T22:39:36.693Z,9.17
2018-10-21T22:42:06.112Z,9.33
2018-10-21T22:44:35.643Z,10.23
2018-10-21T22:47:04.729Z,13.07
2018-10-21T22:49:34.040Z,9.50
2018-10-21T22:52:03.200Z,10.87
2018-10-21T22:54:32.206Z,11.50
2018-10-21T22:57:01.433Z,12.93
2018-10-21T22:59:30.613Z,12.13
2018-10-21T23:01:59.805Z,14.57
2018-10-21T23:04:29.077Z,9.10
2018-10-21T23:06:58.174Z,10.17
2018-10-21T23:09:27.132Z,9.97
2018-10-21T23:11:56.219Z,10.70
2018-10-21T23:14:25.243Z,10.07
2018-10-21T23:16:54.367Z,11.50
2018-10-21T23:19:42.333Z,11.40
2018-10-21T23:22:11.645Z,11.60
2018-10-21T23:24:41.103Z,10.57
2018-10-21T23:27:11.094Z,10.93
2018-10-21T23:29:40.552Z,15.20
2018-10-21T23:32:09.606Z,11.33
2018-10-21T23:34:38.792Z,11.37
2018-10-21T23:37:08.009Z,12.30
2018-10-21T23:39:37.027Z,12.53
2018-10-21T23:42:06.328Z,12.97
2018-10-21T23:44:35.462Z,12.43
2018-10-21T23:47:04.583Z,14.03
2018-10-21T23:49:33.830Z,11.40
2018-10-21T23:52:02.982Z,12.33
2018-10-21T23:54:32.053Z,11.40
2018-10-21T23:57:03.516Z,11.00
2018-10-21T23:59:32.664Z,11.07
